Time;durP1;ratioP1;P1;durP2;ratioP2;P2;SDS_P1;SDS_P2;PMS_P1;PMS_P2;Temp;Humidity;BMP_temperature;BMP_pressure;BME280_temperature;BME280_humidity;BME280_pressure;Samples;Min_cycle;Max_cycle;Signal;HPM_P1;HPM_P2
2023/04/10 00:02:13;;;;;;;17.98;13.52;;;;;;;;;;5039283;28;20041;-66
2023/04/10 00:04:39;;;;;;;18.13;11.68;;;;;;;;;;5040416;28;20075;-66
2023/04/10 00:07:05;;;;;;;18.38;12.88;;;;;;;;;;5038929;28;20044;-66
2023/04/10 00:09:32;;;;;;;21.00;13.90;;;;;;;;;;5038064;28;20068;-66
2023/04/10 00:11:58;;;;;;;20.38;14.45;;;;;;;;;;5034674;28;20048;-66
2023/04/10 00:14:24;;;;;;;20.40;14.48;;;;;;;;;;5031313;28;20052;-66
2023/04/10 00:16:50;;;;;;;17.90;11.73;;;;;;;;;;5040918;28;20036;-66
2023/04/10 00:19:16;;;;;;;16.08;11.98;;;;;;;;;;5036201;28;20131;-66
2023/04/10 00:21:42;;;;;;;13.27;10.23;;;;;;;;;;5039852;28;20028;-66
2023/04/10 00:24:08;;;;;;;15.43;10.93;;;;;;;;;;5038980;28;20049;-66
2023/04/10 00:26:35;;;;;;;13.00;10.48;;;;;;;;;;5040449;28;20040;-66
2023/04/10 00:29:02;;;;;;;13.30;10.27;;;;;;;;;;5036226;28;20064;-66
2023/04/10 00:31:28;;;;;;;13.63;9.73;;;;;;;;;;5036661;28;20057;-66
2023/04/10 00:33:54;;;;;;;12.73;10.20;;;;;;;;;;5037951;28;20060;-66
2023/04/10 00:36:20;;;;;;;17.25;12.25;;;;;;;;;;5033249;28;20392;-66
2023/04/10 00:38:46;;;;;;;16.75;12.55;;;;;;;;;;5034395;28;20140;-66
2023/04/10 00:41:12;;;;;;;17.90;11.95;;;;;;;;;;5036582;28;20041;-66
2023/04/10 00:43:38;;;;;;;17.65;12.73;;;;;;;;;;5038381;28;20045;-66
2023/04/10 00:46:06;;;;;;;17.95;14.25;;;;;;;;;;5039985;28;20139;-66
2023/04/10 00:48:32;;;;;;;19.05;13.63;;;;;;;;;;5040397;28;20072;-66
2023/04/10 00:50:59;;;;;;;16.85;12.02;;;;;;;;;;5033282;28;20048;-66
2023/04/10 00:53:25;;;;;;;17.52;12.73;;;;;;;;;;5033948;28;20044;-66
2023/04/10 00:55:51;;;;;;;20.83;14.27;;;;;;;;;;5038113;28;20121;-66
2023/04/10 00:58:17;;;;;;;20.77;15.50;;;;;;;;;;5035131;28;20120;-66
2023/04/10 01:00:44;;;;;;;22.85;16.02;;;;;;;;;;5039011;28;20743;-66
2023/04/10 01:03:11;;;;;;;22.23;15.75;;;;;;;;;;5040137;28;20526;-66
2023/04/10 01:05:46;;;;;;;18.48;13.27;;;;;;;;;;5037803;28;20055;-66
2023/04/10 01:08:17;;;;;;;22.58;16.02;;;;;;;;;;5036520;28;20049;-66
2023/04/10 01:10:55;;;;;;;18.10;13.52;;;;;;;;;;5037089;28;20048;-66
2023/04/10 01:13:24;;;;;;;21.10;14.77;;;;;;;;;;5035163;28;20067;-66
2023/04/10 01:16:10;;;;;;;20.33;14.52;;;;;;;;;;5040079;28;20039;-66
2023/04/10 01:18:41;;;;;;;20.10;14.55;;;;;;;;;;5033179;28;20056;-66
2023/04/10 01:21:08;;;;;;;22.02;16.33;;;;;;;;;;5040351;28;20045;-66
2023/04/10 01:23:53;;;;;;;18.83;13.93;;;;;;;;;;5038904;28;20087;-66
2023/04/10 01:26:32;;;;;;;18.20;14.05;;;;;;;;;;5037209;28;20056;-66
2023/04/10 01:29:03;;;;;;;18.23;13.45;;;;;;;;;;5041225;28;20100;-66
2023/04/10 01:31:35;;;;;;;20.90;15.73;;;;;;;;;;5035739;28;20056;-66
2023/04/10 01:34:06;;;;;;;20.27;14.07;;;;;;;;;;5036222;28;20372;-66
2023/04/10 01:36:36;;;;;;;20.75;15.93;;;;;;;;;;5040241;28;20049;-66
2023/04/10 01:39:03;;;;;;;22.70;16.23;;;;;;;;;;5038860;28;20094;-66
2023/04/10 01:41:30;;;;;;;23.40;17.80;;;;;;;;;;5037822;28;20687;-66
2023/04/10 01:43:57;;;;;;;21.52;16.48;;;;;;;;;;5037203;28;20586;-66
2023/04/10 01:46:24;;;;;;;23.42;17.23;;;;;;;;;;5036176;28;20037;-66
2023/04/10 01:48:51;;;;;;;24.73;17.73;;;;;;;;;;5035697;28;20037;-67
2023/04/10 01:51:17;;;;;;;23.50;17.17;;;;;;;;;;5039384;28;20459;-66
2023/04/10 01:53:44;;;;;;;23.27;16.35;;;;;;;;;;5031891;28;20135;-66
2023/04/10 01:56:11;;;;;;;23.95;17.40;;;;;;;;;;5039471;28;20049;-66
2023/04/10 01:58:37;;;;;;;21.40;15.20;;;;;;;;;;5038306;28;20048;-66
2023/04/10 02:01:04;;;;;;;26.45;17.52;;;;;;;;;;5038414;28;20420;-66
2023/04/10 02:03:30;;;;;;;20.15;14.65;;;;;;;;;;5036256;28;20056;-65
2023/04/10 02:06:01;;;;;;;22.73;15.70;;;;;;;;;;5036731;28;20049;-66
2023/04/10 02:08:50;;;;;;;21.13;14.75;;;;;;;;;;5037391;28;20053;-66
2023/04/10 02:11:20;;;;;;;21.92;14.77;;;;;;;;;;5025339;28;20057;-66
2023/04/10 02:13:48;;;;;;;19.88;14.40;;;;;;;;;;5040737;28;20372;-66
2023/04/10 02:16:16;;;;;;;20.33;14.25;;;;;;;;;;5039877;28;20434;-66
2023/04/10 02:18:43;;;;;;;18.85;13.15;;;;;;;;;;5040315;28;20446;-66
2023/04/10 02:21:09;;;;;;;17.38;13.70;;;;;;;;;;5036389;28;20545;-66
2023/04/10 02:23:35;;;;;;;18.55;13.45;;;;;;;;;;5035835;28;20045;-66
2023/04/10 02:26:05;;;;;;;20.98;14.27;;;;;;;;;;5038250;28;20048;-66
2023/04/10 02:28:31;;;;;;;19.83;14.65;;;;;;;;;;5030154;28;20057;-66
2023/04/10 02:30:57;;;;;;;21.73;15.52;;;;;;;;;;5036606;28;20051;-66
2023/04/10 02:33:23;;;;;;;19.23;14.73;;;;;;;;;;5036079;28;20048;-66
2023/04/10 02:35:49;;;;;;;25.90;18.00;;;;;;;;;;5035458;28;20450;-66
2023/04/10 02:38:15;;;;;;;22.65;15.65;;;;;;;;;;5034813;28;20044;-66
2023/04/10 02:40:41;;;;;;;22.35;15.13;;;;;;;;;;5038737;28;20484;-66
2023/04/10 02:43:07;;;;;;;19.83;14.23;;;;;;;;;;5038874;28;20041;-66
2023/04/10 02:45:33;;;;;;;19.77;14.18;;;;;;;;;;5036565;28;20044;-66
2023/04/10 02:47:59;;;;;;;20.98;14.32;;;;;;;;;;5041122;28;20079;-66
2023/04/10 02:50:28;;;;;;;22.10;16.40;;;;;;;;;;5040545;28;20048;-66
2023/04/10 02:52:54;;;;;;;23.10;16.63;;;;;;;;;;5040222;28;20076;-66
2023/04/10 02:55:20;;;;;;;23.48;17.05;;;;;;;;;;5041624;28;20053;-66
2023/04/10 02:57:46;;;;;;;23.00;16.95;;;;;;;;;;5041765;28;20103;-66
2023/04/10 03:00:13;;;;;;;23.25;15.57;;;;;;;;;;5045813;28;20041;-66
2023/04/10 03:02:39;;;;;;;18.55;14.85;;;;;;;;;;5045320;28;20041;-66
2023/04/10 03:05:05;;;;;;;30.00;21.65;;;;;;;;;;5044791;28;20936;-66
2023/04/10 03:07:32;;;;;;;32.72;23.10;;;;;;;;;;5044267;28;20053;-66
2023/04/10 03:09:58;;;;;;;30.73;19.30;;;;;;;;;;5043535;28;20571;-66
2023/04/10 03:12:25;;;;;;;24.02;18.63;;;;;;;;;;5043402;28;20143;-66
2023/04/10 03:14:51;;;;;;;24.73;17.25;;;;;;;;;;5043554;28;20049;-66
2023/04/10 03:17:17;;;;;;;20.98;15.32;;;;;;;;;;5043146;28;20056;-66
2023/04/10 03:19:43;;;;;;;20.33;14.85;;;;;;;;;;5045433;28;20792;-66
2023/04/10 03:22:09;;;;;;;22.23;15.73;;;;;;;;;;5044912;28;20110;-67
2023/04/10 03:24:37;;;;;;;20.67;15.68;;;;;;;;;;5043814;28;20044;-66
2023/04/10 03:27:03;;;;;;;21.08;15.20;;;;;;;;;;5042138;28;20059;-66
2023/04/10 03:29:29;;;;;;;20.50;13.85;;;;;;;;;;5043225;28;20052;-66
2023/04/10 03:31:56;;;;;;;20.02;14.20;;;;;;;;;;5043758;28;20090;-66
2023/04/10 03:34:22;;;;;;;18.98;13.93;;;;;;;;;;5044576;28;20464;-66
2023/04/10 03:36:48;;;;;;;16.17;12.38;;;;;;;;;;5044507;28;20039;-66
2023/04/10 03:39:14;;;;;;;17.33;13.02;;;;;;;;;;5043944;28;20045;-66
2023/04/10 03:41:40;;;;;;;17.27;12.10;;;;;;;;;;5044877;28;20045;-66
2023/04/10 03:44:06;;;;;;;14.35;11.40;;;;;;;;;;5044520;28;20623;-66
2023/04/10 03:46:32;;;;;;;16.13;11.23;;;;;;;;;;5042647;28;21790;-66
2023/04/10 03:48:58;;;;;;;17.33;12.13;;;;;;;;;;5044960;28;20151;-66
2023/04/10 03:51:25;;;;;;;17.45;11.65;;;;;;;;;;5044247;28;20045;-66
2023/04/10 03:53:51;;;;;;;17.75;13.02;;;;;;;;;;5043668;28;20045;-66
2023/04/10 03:56:17;;;;;;;16.48;11.63;;;;;;;;;;5044336;28;20064;-66
2023/04/10 03:58:43;;;;;;;18.48;12.70;;;;;;;;;;5043512;28;20045;-66
2023/04/10 04:01:09;;;;;;;20.30;13.55;;;;;;;;;;5040365;28;20595;-66
2023/04/10 04:03:35;;;;;;;18.60;14.00;;;;;;;;;;5044028;28;20624;-66
2023/04/10 04:06:01;;;;;;;16.70;11.50;;;;;;;;;;5044559;28;20053;-66
2023/04/10 04:08:27;;;;;;;15.52;11.07;;;;;;;;;;5042069;28;20049;-66
2023/04/10 04:10:53;;;;;;;17.27;12.43;;;;;;;;;;5040080;28;20048;-66
2023/04/10 04:13:19;;;;;;;16.27;11.43;;;;;;;;;;5044116;28;20040;-66
2023/04/10 04:15:46;;;;;;;14.10;10.73;;;;;;;;;;5043862;28;20055;-66
2023/04/10 04:18:12;;;;;;;14.90;11.27;;;;;;;;;;5045037;28;20049;-66
2023/04/10 04:20:38;;;;;;;16.85;11.75;;;;;;;;;;5044050;28;20048;-66
2023/04/10 04:23:04;;;;;;;18.17;13.48;;;;;;;;;;5041952;28;20049;-66
2023/04/10 04:25:30;;;;;;;23.90;16.83;;;;;;;;;;5044540;28;20447;-67
2023/04/10 04:27:56;;;;;;;19.67;13.90;;;;;;;;;;5044356;28;20040;-66
2023/04/10 04:30:22;;;;;;;24.02;16.63;;;;;;;;;;5042969;28;20191;-66
2023/04/10 04:32:48;;;;;;;23.05;17.33;;;;;;;;;;5044695;28;20041;-66
2023/04/10 04:35:14;;;;;;;24.85;16.58;;;;;;;;;;5044322;28;20048;-66
2023/04/10 04:37:40;;;;;;;21.15;15.20;;;;;;;;;;5045220;28;20072;-65
2023/04/10 04:40:07;;;;;;;28.38;20.38;;;;;;;;;;5044321;28;20514;-66
2023/04/10 04:42:33;;;;;;;22.95;17.63;;;;;;;;;;5043303;28;20131;-66
2023/04/10 04:44:59;;;;;;;23.75;17.48;;;;;;;;;;5042937;28;20484;-66
2023/04/10 04:47:25;;;;;;;25.05;18.48;;;;;;;;;;5041822;28;20407;-66
2023/04/10 04:49:51;;;;;;;25.17;17.85;;;;;;;;;;5044024;28;20037;-66
2023/04/10 04:52:17;;;;;;;22.75;16.25;;;;;;;;;;5043062;28;20048;-66
2023/04/10 04:54:43;;;;;;;21.80;16.13;;;;;;;;;;5043632;28;20048;-66
2023/04/10 04:57:09;;;;;;;21.52;16.42;;;;;;;;;;5041285;28;20040;-66
2023/04/10 04:59:35;;;;;;;24.77;17.52;;;;;;;;;;5043796;28;20135;-66
2023/04/10 05:02:01;;;;;;;24.40;16.70;;;;;;;;;;5042825;28;20053;-67
2023/04/10 05:04:27;;;;;;;23.05;16.10;;;;;;;;;;5041928;28;20060;-66
2023/04/10 05:06:53;;;;;;;22.70;16.40;;;;;;;;;;5042602;28;20602;-66
2023/04/10 05:09:19;;;;;;;21.42;15.13;;;;;;;;;;5042946;28;20371;-66
2023/04/10 05:11:45;;;;;;;19.90;14.77;;;;;;;;;;5043823;28;20056;-66
2023/04/10 05:14:11;;;;;;;24.08;17.63;;;;;;;;;;5044538;28;20045;-66
2023/04/10 05:16:37;;;;;;;20.83;15.77;;;;;;;;;;5041744;28;20079;-66
2023/04/10 05:19:03;;;;;;;21.70;15.95;;;;;;;;;;5043193;28;20086;-66
2023/04/10 05:21:30;;;;;;;23.08;16.17;;;;;;;;;;5043444;28;20063;-66
2023/04/10 05:23:56;;;;;;;26.95;19.60;;;;;;;;;;5043031;28;20041;-66
2023/04/10 05:26:22;;;;;;;24.30;17.75;;;;;;;;;;5043370;28;20063;-66
2023/04/10 05:28:48;;;;;;;25.10;18.20;;;;;;;;;;5043674;28;20033;-66
2023/04/10 05:31:14;;;;;;;27.30;18.20;;;;;;;;;;5043407;28;20074;-66
2023/04/10 05:33:40;;;;;;;27.58;19.20;;;;;;;;;;5043717;28;20610;-66
2023/04/10 05:36:06;;;;;;;26.55;18.73;;;;;;;;;;5042155;28;20128;-66
2023/04/10 05:38:32;;;;;;;26.55;20.30;;;;;;;;;;5043038;28;20041;-66
2023/04/10 05:40:58;;;;;;;27.13;19.90;;;;;;;;;;5043499;28;20094;-66
2023/04/10 05:43:24;;;;;;;26.30;18.67;;;;;;;;;;5043286;28;20578;-66
2023/04/10 05:45:50;;;;;;;27.17;18.75;;;;;;;;;;5043449;28;20454;-66
2023/04/10 05:48:17;;;;;;;27.25;19.85;;;;;;;;;;5043455;28;20041;-66
2023/04/10 05:50:43;;;;;;;27.50;20.20;;;;;;;;;;5043097;28;20106;-66
2023/04/10 05:53:12;;;;;;;26.27;17.80;;;;;;;;;;5038887;28;20049;-66
2023/04/10 05:55:38;;;;;;;27.00;19.60;;;;;;;;;;5043155;28;20045;-66
2023/04/10 05:58:04;;;;;;;26.00;19.15;;;;;;;;;;5042523;28;20503;-66
2023/04/10 06:00:31;;;;;;;28.13;20.23;;;;;;;;;;5042554;28;20559;-66
2023/04/10 06:02:57;;;;;;;27.50;20.25;;;;;;;;;;5042626;28;20045;-66
2023/04/10 06:05:23;;;;;;;26.02;20.23;;;;;;;;;;5042641;28;20095;-66
2023/04/10 06:07:48;;;;;;;35.33;24.15;;;;;;;;;;5040897;28;20073;-66
2023/04/10 06:10:15;;;;;;;32.38;22.80;;;;;;;;;;5041763;28;20045;-66
2023/04/10 06:12:41;;;;;;;33.47;24.13;;;;;;;;;;5043275;28;20127;-66
2023/04/10 06:15:07;;;;;;;32.60;22.88;;;;;;;;;;5042365;28;20048;-66
2023/04/10 06:17:33;;;;;;;33.50;23.75;;;;;;;;;;5042578;28;20041;-66
2023/04/10 06:20:03;;;;;;;33.65;24.95;;;;;;;;;;5042807;28;20395;-65
2023/04/10 06:22:29;;;;;;;30.73;21.40;;;;;;;;;;5041838;28;20061;-66
2023/04/10 06:24:56;;;;;;;28.45;20.88;;;;;;;;;;5043146;28;20091;-66
2023/04/10 06:27:22;;;;;;;27.90;21.02;;;;;;;;;;5040868;28;20081;-66
2023/04/10 06:29:48;;;;;;;29.58;21.60;;;;;;;;;;5043471;28;20037;-66
2023/04/10 06:32:14;;;;;;;28.30;20.67;;;;;;;;;;5042163;28;20045;-65
2023/04/10 06:34:40;;;;;;;28.10;21.67;;;;;;;;;;5046016;28;20494;-66
2023/04/10 06:37:06;;;;;;;30.40;21.00;;;;;;;;;;5045429;28;20048;-66
2023/04/10 06:39:32;;;;;;;31.55;23.73;;;;;;;;;;5046486;28;20049;-66
2023/04/10 06:41:58;;;;;;;33.67;25.08;;;;;;;;;;5046205;28;20049;-66
2023/04/10 06:44:24;;;;;;;28.17;22.08;;;;;;;;;;5046535;28;20045;-66
2023/04/10 06:46:50;;;;;;;32.15;21.92;;;;;;;;;;5042002;28;20104;-66
2023/04/10 06:49:16;;;;;;;27.83;20.90;;;;;;;;;;5043247;28;20048;-66
2023/04/10 06:51:44;;;;;;;30.63;22.38;;;;;;;;;;5047250;28;20136;-66
2023/04/10 06:54:10;;;;;;;36.85;25.45;;;;;;;;;;5047134;28;20045;-66
2023/04/10 06:56:36;;;;;;;31.23;24.08;;;;;;;;;;5045441;28;20052;-66
2023/04/10 06:59:02;;;;;;;29.92;23.67;;;;;;;;;;5046638;28;20515;-66
2023/04/10 07:01:28;;;;;;;27.52;21.52;;;;;;;;;;5039782;28;20061;-66
2023/04/10 07:03:55;;;;;;;26.33;18.65;;;;;;;;;;5042083;28;20119;-66
2023/04/10 07:06:21;;;;;;;26.23;18.30;;;;;;;;;;5043844;28;20048;-66
2023/04/10 07:08:48;;;;;;;23.33;17.65;;;;;;;;;;5043207;28;20094;-66
2023/04/10 07:11:14;;;;;;;23.85;18.08;;;;;;;;;;5040226;28;20045;-66
2023/04/10 07:13:40;;;;;;;26.15;19.90;;;;;;;;;;5039740;28;20041;-67
2023/04/10 07:16:10;;;;;;;26.13;19.58;;;;;;;;;;5043644;28;20040;-66
2023/04/10 07:18:37;;;;;;;30.27;22.55;;;;;;;;;;5045713;28;20045;-66
2023/04/10 07:21:10;;;;;;;28.67;22.13;;;;;;;;;;5045007;28;20131;-66
2023/04/10 07:23:36;;;;;;;27.15;21.33;;;;;;;;;;5045769;28;20498;-66
2023/04/10 07:26:02;;;;;;;31.17;24.10;;;;;;;;;;5045216;28;20045;-66
2023/04/10 07:28:28;;;;;;;29.88;21.88;;;;;;;;;;5041662;28;20045;-67
2023/04/10 07:30:54;;;;;;;27.38;21.02;;;;;;;;;;5039605;28;20049;-66
2023/04/10 07:33:20;;;;;;;27.10;21.73;;;;;;;;;;5041198;28;20056;-66
2023/04/10 07:35:46;;;;;;;29.38;22.02;;;;;;;;;;5046780;28;20037;-67
2023/04/10 07:38:13;;;;;;;29.02;21.77;;;;;;;;;;5046490;28;20099;-66
2023/04/10 07:40:39;;;;;;;28.75;22.90;;;;;;;;;;5048216;28;20296;-81
2023/04/10 07:43:05;;;;;;;32.05;23.00;;;;;;;;;;5045702;28;20131;-80
2023/04/10 07:45:31;;;;;;;29.73;22.30;;;;;;;;;;5038904;28;20048;-81
2023/04/10 07:47:58;;;;;;;30.77;23.35;;;;;;;;;;5040349;28;20128;-80
2023/04/10 07:50:24;;;;;;;31.20;23.95;;;;;;;;;;5042474;28;20048;-80
2023/04/10 07:52:50;;;;;;;29.50;23.38;;;;;;;;;;5045548;28;20575;-75
2023/04/10 07:55:16;;;;;;;29.00;22.67;;;;;;;;;;5051300;28;20079;-77
2023/04/10 07:57:42;;;;;;;31.70;24.10;;;;;;;;;;5046939;28;20457;-77
2023/04/10 08:00:08;;;;;;;29.85;22.13;;;;;;;;;;5045525;28;20037;-75
2023/04/10 08:02:35;;;;;;;28.50;21.20;;;;;;;;;;5042792;28;20050;-74
2023/04/10 08:05:01;;;;;;;28.42;21.95;;;;;;;;;;5041535;28;20078;-75
2023/04/10 08:07:26;;;;;;;28.92;22.63;;;;;;;;;;5045907;28;20570;-76
2023/04/10 08:09:52;;;;;;;28.00;22.50;;;;;;;;;;5042083;28;20099;-72
2023/04/10 08:12:18;;;;;;;27.13;21.13;;;;;;;;;;5042736;28;20048;-75
2023/04/10 08:14:44;;;;;;;28.05;22.40;;;;;;;;;;5045436;28;20141;-76
2023/04/10 08:17:13;;;;;;;29.48;22.83;;;;;;;;;;5045447;28;20469;-76
2023/04/10 08:19:40;;;;;;;23.48;19.17;;;;;;;;;;5046054;28;20682;-75
2023/04/10 08:22:06;;;;;;;25.08;19.42;;;;;;;;;;5046789;28;20049;-75
2023/04/10 08:24:32;;;;;;;27.88;21.20;;;;;;;;;;5046247;28;20048;-76
2023/04/10 08:26:58;;;;;;;27.35;20.95;;;;;;;;;;5044408;28;20514;-76
2023/04/10 08:29:24;;;;;;;28.02;21.95;;;;;;;;;;5044969;28;20051;-76
2023/04/10 08:31:50;;;;;;;29.52;22.55;;;;;;;;;;5044572;28;20091;-76
2023/04/10 08:34:16;;;;;;;25.52;20.45;;;;;;;;;;5044436;28;20088;-76
2023/04/10 08:36:42;;;;;;;28.83;21.67;;;;;;;;;;5045778;28;20083;-76
2023/04/10 08:39:08;;;;;;;26.88;20.55;;;;;;;;;;5044726;28;20095;-76
2023/04/10 08:41:34;;;;;;;26.73;20.90;;;;;;;;;;5044619;28;20102;-76
2023/04/10 08:44:00;;;;;;;26.27;21.45;;;;;;;;;;5046300;28;20140;-75
2023/04/10 08:46:26;;;;;;;26.35;21.52;;;;;;;;;;5046565;28;20132;-76
2023/04/10 08:49:00;;;;;;;25.83;19.95;;;;;;;;;;5045488;28;20503;-76
2023/04/10 08:51:31;;;;;;;25.48;20.30;;;;;;;;;;5045133;28;20049;-75
2023/04/10 08:53:58;;;;;;;24.98;19.45;;;;;;;;;;5044914;28;20056;-75
2023/04/10 08:56:24;;;;;;;25.02;19.50;;;;;;;;;;5044248;28;20078;-76
2023/04/10 08:58:51;;;;;;;22.33;18.27;;;;;;;;;;5046262;28;20048;-76
2023/04/10 09:01:19;;;;;;;22.08;18.38;;;;;;;;;;5045864;28;20526;-76
2023/04/10 09:03:47;;;;;;;23.67;18.90;;;;;;;;;;5045448;28;20041;-76
2023/04/10 09:06:13;;;;;;;24.65;18.27;;;;;;;;;;5045314;28;20391;-75
2023/04/10 09:08:39;;;;;;;21.80;17.63;;;;;;;;;;5045566;28;20040;-76
2023/04/10 09:11:05;;;;;;;22.23;17.60;;;;;;;;;;5046063;28;20283;-76
2023/04/10 09:13:38;;;;;;;20.83;16.50;;;;;;;;;;5046166;28;20072;-76
2023/04/10 09:16:05;;;;;;;21.63;16.95;;;;;;;;;;5043882;28;20045;-75
2023/04/10 09:18:41;;;;;;;21.65;16.83;;;;;;;;;;5044868;28;20064;-75
2023/04/10 09:21:08;;;;;;;19.85;15.65;;;;;;;;;;5044053;28;20499;-75
2023/04/10 09:23:34;;;;;;;19.52;15.30;;;;;;;;;;5045302;28;20198;-76
2023/04/10 09:26:00;;;;;;;20.85;16.02;;;;;;;;;;5045514;28;20053;-77
2023/04/10 09:28:26;;;;;;;19.58;15.27;;;;;;;;;;5045872;28;20600;-76
2023/04/10 09:30:52;;;;;;;18.95;14.82;;;;;;;;;;5043762;28;20049;-75
2023/04/10 09:33:22;;;;;;;18.25;15.65;;;;;;;;;;5045747;28;20080;-76
2023/04/10 09:35:49;;;;;;;18.40;15.32;;;;;;;;;;5044331;28;20060;-76
2023/04/10 09:38:16;;;;;;;17.20;14.98;;;;;;;;;;5045682;28;20044;-76
2023/04/10 09:40:42;;;;;;;17.45;14.38;;;;;;;;;;5046406;28;20048;-75
2023/04/10 09:43:20;;;;;;;17.23;13.82;;;;;;;;;;5045590;28;20037;-75
2023/04/10 09:45:47;;;;;;;20.00;14.77;;;;;;;;;;5044945;28;20044;-76
2023/04/10 09:48:13;;;;;;;15.73;13.57;;;;;;;;;;5046004;28;20068;-75
2023/04/10 09:50:39;;;;;;;17.27;14.18;;;;;;;;;;5045791;28;20479;-76
2023/04/10 09:53:06;;;;;;;15.13;12.63;;;;;;;;;;5044965;28;20057;-76
2023/04/10 09:55:34;;;;;;;14.48;12.02;;;;;;;;;;5044185;28;20053;-77
2023/04/10 09:58:00;;;;;;;13.88;12.30;;;;;;;;;;5044805;28;20164;-76
2023/04/10 10:00:27;;;;;;;14.23;12.65;;;;;;;;;;5045524;28;20162;-75
2023/04/10 10:02:54;;;;;;;17.70;13.13;;;;;;;;;;5045526;28;20060;-76
2023/04/10 10:05:21;;;;;;;14.25;12.65;;;;;;;;;;5043565;28;20561;-76
2023/04/10 10:07:48;;;;;;;13.10;11.70;;;;;;;;;;5046743;28;20044;-77
2023/04/10 10:10:14;;;;;;;13.68;12.18;;;;;;;;;;5050360;28;20423;-76
2023/04/10 10:12:43;;;;;;;14.93;11.85;;;;;;;;;;5048160;28;20045;-76
2023/04/10 10:15:48;;;;;;;13.93;12.35;;;;;;;;;;5049643;28;20077;-75
2023/04/10 10:18:32;;;;;;;12.35;10.75;;;;;;;;;;4987435;28;20667;-75
2023/04/10 10:20:59;;;;;;;12.73;10.40;;;;;;;;;;4986514;28;20507;-76
2023/04/10 10:23:25;;;;;;;12.30;11.00;;;;;;;;;;5023912;28;20191;-75
2023/04/10 10:25:53;;;;;;;12.20;10.90;;;;;;;;;;5048525;28;20057;-75
2023/04/10 10:28:20;;;;;;;12.93;11.02;;;;;;;;;;5048065;28;20128;-77
2023/04/10 10:30:48;;;;;;;13.43;10.65;;;;;;;;;;5048553;28;20628;-76
2023/04/10 10:33:14;;;;;;;10.75;9.68;;;;;;;;;;5049132;28;20060;-76
2023/04/10 10:35:41;;;;;;;11.73;9.52;;;;;;;;;;5048143;28;20145;-75
2023/04/10 10:38:07;;;;;;;11.32;9.63;;;;;;;;;;5048691;28;20521;-76
2023/04/10 10:40:39;;;;;;;11.20;10.05;;;;;;;;;;5046827;28;20053;-76
2023/04/10 10:43:05;;;;;;;10.57;9.45;;;;;;;;;;5048625;28;20453;-75
2023/04/10 10:45:39;;;;;;;9.73;8.55;;;;;;;;;;5047514;28;20068;-76
2023/04/10 10:48:05;;;;;;;10.68;9.63;;;;;;;;;;5047859;28;20067;-76
2023/04/10 10:51:10;;;;;;;8.85;8.00;;;;;;;;;;5048633;28;20141;-75
2023/04/10 10:53:38;;;;;;;9.85;8.73;;;;;;;;;;4986502;28;20078;-76
2023/04/10 10:56:19;;;;;;;8.95;8.05;;;;;;;;;;4969773;28;20505;-76
2023/04/10 10:58:46;;;;;;;9.27;8.38;;;;;;;;;;5022881;28;20068;-76
2023/04/10 11:01:12;;;;;;;8.82;7.97;;;;;;;;;;5046884;28;20484;-76
2023/04/10 11:03:38;;;;;;;8.93;7.80;;;;;;;;;;5046870;28;20071;-75
2023/04/10 11:06:08;;;;;;;9.70;8.80;;;;;;;;;;5048257;28;20200;-76
2023/04/10 11:08:44;;;;;;;8.82;7.88;;;;;;;;;;5046147;28;20053;-76
2023/04/10 11:11:17;;;;;;;8.50;7.60;;;;;;;;;;5047921;28;20126;-76
2023/04/10 11:13:52;;;;;;;8.85;7.95;;;;;;;;;;5049083;28;20113;-76
2023/04/10 11:16:21;;;;;;;8.52;7.72;;;;;;;;;;5047561;28;20480;-76
2023/04/10 11:18:50;;;;;;;7.72;6.93;;;;;;;;;;5047754;28;20045;-76
2023/04/10 11:21:16;;;;;;;8.68;7.78;;;;;;;;;;5046720;28;20156;-76
2023/04/10 11:23:53;;;;;;;8.18;7.30;;;;;;;;;;5047057;28;20099;-76
2023/04/10 11:26:38;;;;;;;9.80;8.43;;;;;;;;;;5047983;28;20410;-77
2023/04/10 11:29:16;;;;;;;7.53;6.82;;;;;;;;;;5047571;28;20510;-76
2023/04/10 11:32:03;;;;;;;7.35;6.60;;;;;;;;;;5048275;28;20084;-75
2023/04/10 11:34:31;;;;;;;7.28;6.57;;;;;;;;;;5048255;28;20386;-76
2023/04/10 11:36:57;;;;;;;7.50;6.80;;;;;;;;;;5045944;28;20084;-75
2023/04/10 11:39:23;;;;;;;7.32;6.70;;;;;;;;;;5047752;28;20048;-76
2023/04/10 11:41:52;;;;;;;7.15;6.45;;;;;;;;;;5047407;28;20055;-76
2023/04/10 11:44:26;;;;;;;7.40;6.55;;;;;;;;;;5047075;28;20459;-75
2023/04/10 11:46:52;;;;;;;7.05;6.13;;;;;;;;;;5045951;28;20049;-76
2023/04/10 11:49:20;;;;;;;7.25;6.50;;;;;;;;;;5046436;28;20041;-76
2023/04/10 11:51:47;;;;;;;6.78;6.07;;;;;;;;;;5046771;28;20033;-76
2023/04/10 11:54:17;;;;;;;6.82;6.05;;;;;;;;;;5047944;28;20138;-76
2023/04/10 11:56:44;;;;;;;7.03;6.35;;;;;;;;;;5048051;28;20044;-76
2023/04/10 11:59:12;;;;;;;6.88;6.18;;;;;;;;;;5046109;28;20118;-76
2023/04/10 12:01:41;;;;;;;6.57;5.97;;;;;;;;;;5046786;28;20049;-77
2023/04/10 12:04:17;;;;;;;6.38;5.78;;;;;;;;;;5034666;28;20422;-77
2023/04/10 12:06:53;;;;;;;5.78;5.28;;;;;;;;;;5037568;28;20030;-76
2023/04/10 12:09:19;;;;;;;6.30;5.07;;;;;;;;;;5036805;28;20053;-76
2023/04/10 12:11:58;;;;;;;6.75;6.05;;;;;;;;;;5035707;28;20041;-74
2023/04/10 12:14:28;;;;;;;5.93;5.25;;;;;;;;;;5039240;28;20048;-76
2023/04/10 12:16:54;;;;;;;5.63;4.82;;;;;;;;;;5036961;28;20041;-77
2023/04/10 12:19:22;;;;;;;6.22;5.15;;;;;;;;;;5038000;28;20423;-76
2023/04/10 12:21:48;;;;;;;4.70;4.30;;;;;;;;;;5041719;28;20049;-77
2023/04/10 12:24:34;;;;;;;6.35;5.18;;;;;;;;;;5042397;28;20072;-76
2023/04/10 12:27:01;;;;;;;4.93;4.50;;;;;;;;;;5042443;28;20489;-77
2023/04/10 12:29:27;;;;;;;5.60;5.10;;;;;;;;;;5039594;28;20067;-76
2023/04/10 12:31:53;;;;;;;4.20;3.83;;;;;;;;;;5030417;28;20622;-76
2023/04/10 12:34:19;;;;;;;4.97;4.20;;;;;;;;;;5043054;28;20143;-76
2023/04/10 12:36:52;;;;;;;4.97;4.10;;;;;;;;;;5030994;28;20049;-77
2023/04/10 12:39:22;;;;;;;5.70;4.30;;;;;;;;;;5037299;28;20479;-77
2023/04/10 12:41:48;;;;;;;4.72;4.07;;;;;;;;;;5037391;28;20037;-76
2023/04/10 12:44:14;;;;;;;5.07;4.63;;;;;;;;;;5041525;28;20056;-76
2023/04/10 12:46:41;;;;;;;4.97;3.90;;;;;;;;;;5044489;28;20053;-76
2023/04/10 12:49:17;;;;;;;5.10;4.18;;;;;;;;;;5036847;28;20583;-76
2023/04/10 12:51:46;;;;;;;4.47;4.07;;;;;;;;;;5041272;28;20127;-76
2023/04/10 12:54:39;;;;;;;6.68;4.95;;;;;;;;;;5033672;28;20045;-76
2023/04/10 12:57:05;;;;;;;4.50;4.10;;;;;;;;;;5029668;28;20458;-76
2023/04/10 12:59:32;;;;;;;4.75;4.30;;;;;;;;;;5029601;28;20132;-76
2023/04/10 13:01:58;;;;;;;5.22;4.68;;;;;;;;;;5032250;28;20052;-76
2023/04/10 13:04:24;;;;;;;4.95;3.90;;;;;;;;;;5037500;28;20045;-76
2023/04/10 13:06:53;;;;;;;4.80;4.40;;;;;;;;;;5034257;28;20095;-77
2023/04/10 13:09:20;;;;;;;4.65;4.25;;;;;;;;;;5040155;28;20056;-76
2023/04/10 13:11:46;;;;;;;4.88;4.47;;;;;;;;;;5044333;28;20033;-76
2023/04/10 13:14:12;;;;;;;4.70;4.30;;;;;;;;;;5044046;28;20115;-76
2023/04/10 13:16:38;;;;;;;5.80;4.68;;;;;;;;;;5039726;28;20084;-76
2023/04/10 13:19:04;;;;;;;5.40;4.90;;;;;;;;;;5041759;28;20066;-77
2023/04/10 13:21:30;;;;;;;5.18;4.68;;;;;;;;;;5034448;28;20114;-76
2023/04/10 13:23:57;;;;;;;6.18;4.68;;;;;;;;;;5042613;28;20044;-76
2023/04/10 13:26:23;;;;;;;5.18;4.65;;;;;;;;;;5043334;28;20041;-76
2023/04/10 13:28:49;;;;;;;5.25;4.75;;;;;;;;;;5044232;28;20037;-76
2023/04/10 13:31:15;;;;;;;5.15;4.75;;;;;;;;;;5040507;28;20529;-77
2023/04/10 13:33:46;;;;;;;5.28;4.25;;;;;;;;;;5054076;28;20110;-76
2023/04/10 13:36:13;;;;;;;5.60;5.10;;;;;;;;;;5041935;28;20052;-82
2023/04/10 13:38:39;;;;;;;4.60;4.20;;;;;;;;;;5043130;28;20049;-78
2023/04/10 13:41:05;;;;;;;5.22;4.72;;;;;;;;;;5036157;28;20056;-78
2023/04/10 13:43:31;;;;;;;5.60;4.97;;;;;;;;;;5043343;28;20495;-77
2023/04/10 13:45:57;;;;;;;5.65;5.15;;;;;;;;;;5038163;28;20046;-77
2023/04/10 13:48:23;;;;;;;6.20;5.20;;;;;;;;;;5033410;28;20045;-78
2023/04/10 13:50:49;;;;;;;5.72;5.03;;;;;;;;;;5040921;28;20128;-70
2023/04/10 13:53:15;;;;;;;5.18;4.78;;;;;;;;;;5041640;28;20041;-78
2023/04/10 13:55:42;;;;;;;6.88;5.25;;;;;;;;;;5045031;28;20574;-75
2023/04/10 13:58:14;;;;;;;5.25;4.75;;;;;;;;;;5042114;28;20037;-75
2023/04/10 14:00:43;;;;;;;5.60;4.95;;;;;;;;;;5042801;28;21147;-76
2023/04/10 14:03:11;;;;;;;5.97;5.07;;;;;;;;;;5039103;28;20044;-75
2023/04/10 14:05:37;;;;;;;5.00;4.60;;;;;;;;;;5036541;28;20115;-77
2023/04/10 14:08:03;;;;;;;7.38;4.95;;;;;;;;;;5034946;28;20102;-75
2023/04/10 14:10:29;;;;;;;5.43;4.93;;;;;;;;;;5030426;28;20045;-76
2023/04/10 14:12:56;;;;;;;5.28;4.78;;;;;;;;;;5035570;28;20055;-76
2023/04/10 14:15:22;;;;;;;5.30;4.35;;;;;;;;;;5035842;28;20056;-76
2023/04/10 14:17:48;;;;;;;4.30;4.00;;;;;;;;;;5034548;28;20041;-76
2023/04/10 14:20:14;;;;;;;4.93;4.53;;;;;;;;;;5036071;28;20057;-77
2023/04/10 14:22:40;;;;;;;5.57;5.07;;;;;;;;;;5036141;28;20041;-76
2023/04/10 14:25:06;;;;;;;5.40;4.78;;;;;;;;;;5038496;28;20404;-76
2023/04/10 14:27:33;;;;;;;4.50;4.13;;;;;;;;;;5037778;28;20049;-76